sensor_id;sensor_type;location;lat;lon;timestamp;pressure;altitude;pressure_sealevel;temperature;humidity
41684;BME280;27369;52.030;4.586;2023-06-22T00:01:55;20656.81;;;-144.41;100.00
41684;BME280;27369;52.030;4.586;2023-06-22T00:04:20;19443.31;;;-144.41;100.00
41684;BME280;27369;52.030;4.586;2023-06-22T00:06:46;19213.63;;;-144.41;100.00
41684;BME280;27369;52.030;4.586;2023-06-22T00:09:11;18718.94;;;-144.41;100.00
41684;BME280;27369;52.030;4.586;2023-06-22T00:11:37;15079.41;;;-144.41;100.00
41684;BME280;27369;52.030;4.586;2023-06-22T00:14:03;13628.47;;;-144.41;100.00
41684;BME280;27369;52.030;4.586;2023-06-22T00:16:29;13450.09;;;-144.41;100.00
41684;BME280;27369;52.030;4.586;2023-06-22T00:18:54;13144.28;;;-144.41;100.00
41684;BME280;27369;52.030;4.586;2023-06-22T00:21:20;14877.41;;;-144.41;100.00
41684;BME280;27369;52.030;4.586;2023-06-22T00:23:46;15342.19;;;-144.41;100.00
41684;BME280;27369;52.030;4.586;2023-06-22T00:26:12;15687.38;;;-144.41;100.00
41684;BME280;27369;52.030;4.586;2023-06-22T00:28:38;17973.09;;;-144.41;100.00
41684;BME280;27369;52.030;4.586;2023-06-22T00:31:03;17076.31;;;-144.41;100.00
41684;BME280;27369;52.030;4.586;2023-06-22T00:33:29;18716.97;;;-144.41;100.00
41684;BME280;27369;52.030;4.586;2023-06-22T00:35:54;20584.16;;;-144.41;100.00
41684;BME280;27369;52.030;4.586;2023-06-22T00:38:20;20307.25;;;-144.41;100.00
41684;BME280;27369;52.030;4.586;2023-06-22T00:40:45;24620.03;;;-144.41;100.00
41684;BME280;27369;52.030;4.586;2023-06-22T00:43:11;25314.03;;;-144.41;100.00
41684;BME280;27369;52.030;4.586;2023-06-22T00:45:38;25738.78;;;-144.41;100.00
41684;BME280;27369;52.030;4.586;2023-06-22T00:48:04;26100.63;;;-144.41;100.00
41684;BME280;27369;52.030;4.586;2023-06-22T00:50:32;30768.28;;;-144.41;100.00
41684;BME280;27369;52.030;4.586;2023-06-22T00:53:04;31006.56;;;-144.41;100.00
41684;BME280;27369;52.030;4.586;2023-06-22T00:55:42;32796.88;;;-144.41;100.00
41684;BME280;27369;52.030;4.586;2023-06-22T00:58:13;35613.03;;;-144.41;100.00
41684;BME280;27369;52.030;4.586;2023-06-22T01:00:40;38111.66;;;-144.41;100.00
41684;BME280;27369;52.030;4.586;2023-06-22T01:03:06;50102.09;;;-144.41;100.00
41684;BME280;27369;52.030;4.586;2023-06-22T01:05:35;55687.94;;;-144.41;100.00
41684;BME280;27369;52.030;4.586;2023-06-22T01:08:38;57019.72;;;-144.41;100.00
41684;BME280;27369;52.030;4.586;2023-06-22T01:11:09;54414.06;;;-144.41;100.00
41684;BME280;27369;52.030;4.586;2023-06-22T01:13:48;56333.97;;;-144.41;100.00
41684;BME280;27369;52.030;4.586;2023-06-22T01:16:29;58062.47;;;-144.41;100.00
41684;BME280;27369;52.030;4.586;2023-06-22T01:18:57;59319.69;;;-144.41;100.00
41684;BME280;27369;52.030;4.586;2023-06-22T01:21:28;68497.09;;;-144.41;100.00
41684;BME280;27369;52.030;4.586;2023-06-22T01:26:42;75118.25;;;-144.41;100.00
41684;BME280;27369;52.030;4.586;2023-06-22T01:29:10;77667.78;;;-144.41;100.00
41684;BME280;27369;52.030;4.586;2023-06-22T01:31:40;79453.41;;;-144.41;100.00
41684;BME280;27369;52.030;4.586;2023-06-22T01:34:08;80984.56;;;-144.41;100.00
41684;BME280;27369;52.030;4.586;2023-06-22T01:36:35;82771.69;;;-144.41;100.00
41684;BME280;27369;52.030;4.586;2023-06-22T01:39:02;85326.06;;;-144.41;100.00
41684;BME280;27369;52.030;4.586;2023-06-22T01:41:34;86092.69;;;-144.41;100.00
41684;BME280;27369;52.030;4.586;2023-06-22T01:44:01;87370.75;;;-144.41;100.00
41684;BME280;27369;52.030;4.586;2023-06-22T01:46:28;88649.19;;;-144.41;100.00
41684;BME280;27369;52.030;4.586;2023-06-22T01:48:54;89928.03;;;-144.41;100.00
41684;BME280;27369;52.030;4.586;2023-06-22T01:51:20;96072.19;;;-144.41;100.00
41684;BME280;27369;52.030;4.586;2023-06-22T01:53:46;96072.19;;;-144.41;100.00
41684;BME280;27369;52.030;4.586;2023-06-22T01:56:12;96072.19;;;-144.41;100.00
41684;BME280;27369;52.030;4.586;2023-06-22T01:59:04;95816.00;;;-144.41;100.00
41684;BME280;27369;52.030;4.586;2023-06-22T02:01:43;95303.66;;;-144.41;100.00
41684;BME280;27369;52.030;4.586;2023-06-22T02:04:13;97097.13;;;-144.41;100.00
41684;BME280;27369;52.030;4.586;2023-06-22T02:06:44;97353.41;;;-144.41;100.00
41684;BME280;27369;52.030;4.586;2023-06-22T02:09:17;97866.00;;;-144.41;100.00
41684;BME280;27369;52.030;4.586;2023-06-22T02:11:45;101456.00;;;-144.41;100.00
41684;BME280;27369;52.030;4.586;2023-06-22T02:14:12;101969.13;;;-144.41;100.00
41684;BME280;27369;52.030;4.586;2023-06-22T02:16:39;102225.69;;;-144.41;100.00
41684;BME280;27369;52.030;4.586;2023-06-22T02:19:05;102482.31;;;-144.41;100.00
41684;BME280;27369;52.030;4.586;2023-06-22T02:21:32;102995.56;;;-144.41;100.00
41684;BME280;27369;52.030;4.586;2023-06-22T02:23:58;103252.19;;;-144.41;100.00
41684;BME280;27369;52.030;4.586;2023-06-22T02:26:25;103252.19;;;-144.41;100.00
41684;BME280;27369;52.030;4.586;2023-06-22T02:28:51;103252.19;;;-144.41;100.00
41684;BME280;27369;52.030;4.586;2023-06-22T02:31:16;103508.84;;;-144.41;100.00
41684;BME280;27369;52.030;4.586;2023-06-22T02:33:42;103765.53;;;-144.41;100.00
41684;BME280;27369;52.030;4.586;2023-06-22T02:36:09;104022.22;;;-144.41;100.00
41684;BME280;27369;52.030;4.586;2023-06-22T02:38:35;104022.22;;;-144.41;100.00
41684;BME280;27369;52.030;4.586;2023-06-22T02:41:02;104278.94;;;-144.41;100.00
41684;BME280;27369;52.030;4.586;2023-06-22T02:43:27;104535.69;;;-144.41;100.00
41684;BME280;27369;52.030;4.586;2023-06-22T02:45:53;104535.69;;;-144.41;100.00
41684;BME280;27369;52.030;4.586;2023-06-22T02:48:18;104792.41;;;-144.41;100.00
41684;BME280;27369;52.030;4.586;2023-06-22T02:50:44;104792.41;;;-144.41;100.00
41684;BME280;27369;52.030;4.586;2023-06-22T02:53:09;105049.19;;;-144.41;100.00
41684;BME280;27369;52.030;4.586;2023-06-22T02:55:35;105305.97;;;-144.41;100.00
41684;BME280;27369;52.030;4.586;2023-06-22T02:58:00;105305.97;;;-144.41;100.00
41684;BME280;27369;52.030;4.586;2023-06-22T03:00:30;106333.22;;;-144.41;100.00
41684;BME280;27369;52.030;4.586;2023-06-22T03:02:56;106590.09;;;-144.41;100.00
41684;BME280;27369;52.030;4.586;2023-06-22T03:05:22;106846.97;;;-144.41;100.00
41684;BME280;27369;52.030;4.586;2023-06-22T03:07:48;107103.84;;;-144.41;100.00
41684;BME280;27369;52.030;4.586;2023-06-22T03:10:14;108131.56;;;-144.41;100.00
41684;BME280;27369;52.030;4.586;2023-06-22T03:12:41;108131.56;;;-144.41;100.00
41684;BME280;27369;52.030;4.586;2023-06-22T03:15:11;108388.56;;;-144.41;100.00
41684;BME280;27369;52.030;4.586;2023-06-22T03:17:38;108388.56;;;-144.41;100.00
41684;BME280;27369;52.030;4.586;2023-06-22T03:20:05;108388.56;;;-144.41;100.00
41684;BME280;27369;52.030;4.586;2023-06-22T03:22:41;108388.56;;;-144.41;100.00
41684;BME280;27369;52.030;4.586;2023-06-22T03:25:08;108647.53;;;-144.41;100.00
41684;BME280;27369;52.030;4.586;2023-06-22T03:27:39;108647.53;;;-144.41;100.00
41684;BME280;27369;52.030;4.586;2023-06-22T03:30:07;108647.53;;;-144.41;100.00
41684;BME280;27369;52.030;4.586;2023-06-22T03:32:33;108647.53;;;-144.41;100.00
41684;BME280;27369;52.030;4.586;2023-06-22T03:34:58;108647.53;;;-144.41;100.00
41684;BME280;27369;52.030;4.586;2023-06-22T03:37:25;108647.53;;;-144.41;100.00
41684;BME280;27369;52.030;4.586;2023-06-22T03:39:51;108647.53;;;-144.41;100.00
41684;BME280;27369;52.030;4.586;2023-06-22T03:42:16;108647.53;;;-144.41;100.00
41684;BME280;27369;52.030;4.586;2023-06-22T03:44:42;108647.53;;;-144.41;100.00
41684;BME280;27369;52.030;4.586;2023-06-22T03:47:07;108647.53;;;-144.41;100.00
41684;BME280;27369;52.030;4.586;2023-06-22T03:49:33;108647.53;;;-144.41;100.00
41684;BME280;27369;52.030;4.586;2023-06-22T03:52:00;108647.53;;;-144.41;100.00
41684;BME280;27369;52.030;4.586;2023-06-22T03:54:27;108647.53;;;-144.41;100.00
41684;BME280;27369;52.030;4.586;2023-06-22T03:56:53;108647.53;;;-144.41;100.00
41684;BME280;27369;52.030;4.586;2023-06-22T03:59:18;108647.53;;;-144.41;100.00
41684;BME280;27369;52.030;4.586;2023-06-22T04:01:43;108647.53;;;-144.41;100.00
41684;BME280;27369;52.030;4.586;2023-06-22T04:04:10;108647.53;;;-144.41;100.00
41684;BME280;27369;52.030;4.586;2023-06-22T04:06:35;108647.53;;;-144.41;100.00
41684;BME280;27369;52.030;4.586;2023-06-22T04:09:01;108647.53;;;-144.41;100.00
41684;BME280;27369;52.030;4.586;2023-06-22T04:11:26;108647.53;;;-144.41;100.00
41684;BME280;27369;52.030;4.586;2023-06-22T04:13:51;108647.53;;;-144.41;100.00
41684;BME280;27369;52.030;4.586;2023-06-22T04:16:17;108647.53;;;-144.41;100.00
41684;BME280;27369;52.030;4.586;2023-06-22T04:18:42;108647.53;;;-144.41;100.00
41684;BME280;27369;52.030;4.586;2023-06-22T04:21:10;108647.53;;;-144.41;100.00
41684;BME280;27369;52.030;4.586;2023-06-22T04:23:35;108647.53;;;-144.41;100.00
41684;BME280;27369;52.030;4.586;2023-06-22T04:26:01;108647.53;;;-144.41;100.00
41684;BME280;27369;52.030;4.586;2023-06-22T04:28:26;108647.53;;;-144.41;100.00
41684;BME280;27369;52.030;4.586;2023-06-22T04:30:52;108647.53;;;-144.41;100.00
41684;BME280;27369;52.030;4.586;2023-06-22T04:33:17;108647.53;;;-144.41;100.00
41684;BME280;27369;52.030;4.586;2023-06-22T04:35:46;108647.53;;;-144.41;100.00
41684;BME280;27369;52.030;4.586;2023-06-22T04:38:12;108647.53;;;-144.41;100.00
41684;BME280;27369;52.030;4.586;2023-06-22T04:40:40;108647.53;;;-144.41;100.00
41684;BME280;27369;52.030;4.586;2023-06-22T04:43:06;108647.53;;;-144.41;100.00
41684;BME280;27369;52.030;4.586;2023-06-22T04:45:32;108647.53;;;-144.41;100.00
41684;BME280;27369;52.030;4.586;2023-06-22T04:47:58;108647.53;;;-144.41;100.00
41684;BME280;27369;52.030;4.586;2023-06-22T04:50:24;108645.53;;;-144.41;100.00
41684;BME280;27369;52.030;4.586;2023-06-22T04:52:50;108388.56;;;-144.41;100.00
41684;BME280;27369;52.030;4.586;2023-06-22T04:55:16;108131.56;;;-144.41;100.00
41684;BME280;27369;52.030;4.586;2023-06-22T04:57:48;107360.75;;;-144.41;100.00
41684;BME280;27369;52.030;4.586;2023-06-22T05:00:23;106333.22;;;-144.41;100.00
41684;BME280;27369;52.030;4.586;2023-06-22T05:02:49;105562.75;;;-144.41;100.00
41684;BME280;27369;52.030;4.586;2023-06-22T05:05:15;105049.19;;;-144.41;100.00
41684;BME280;27369;52.030;4.586;2023-06-22T05:07:45;103508.84;;;-144.41;100.00
41684;BME280;27369;52.030;4.586;2023-06-22T05:10:13;102995.56;;;-144.41;100.00
41684;BME280;27369;52.030;4.586;2023-06-22T05:12:40;101969.13;;;-144.41;100.00
41684;BME280;27369;52.030;4.586;2023-06-22T05:15:07;100942.94;;;-144.41;100.00
41684;BME280;27369;52.030;4.586;2023-06-22T05:17:33;99404.19;;;-144.41;100.00
41684;BME280;27369;52.030;4.586;2023-06-22T05:19:58;92742.97;;;-144.41;100.00
41684;BME280;27369;52.030;4.586;2023-06-22T05:22:24;89672.25;;;-144.41;100.00
41684;BME280;27369;52.030;4.586;2023-06-22T05:24:49;86859.47;;;-144.41;100.00
41684;BME280;27369;52.030;4.586;2023-06-22T05:27:15;80729.34;;;-144.41;100.00
41684;BME280;27369;52.030;4.586;2023-06-22T05:29:40;70024.09;;;-144.41;100.00
41684;BME280;27369;52.030;4.586;2023-06-22T05:32:07;64428.00;;;-144.41;100.00
41684;BME280;27369;52.030;4.586;2023-06-22T05:34:33;49852.81;;;-144.41;100.00
41684;BME280;27369;52.030;4.586;2023-06-22T05:36:58;33480.53;;;-144.41;100.00
41684;BME280;27369;52.030;4.586;2023-06-22T05:39:24;25025.03;;;-144.41;100.00
41684;BME280;27369;52.030;4.586;2023-06-22T05:41:51;16413.19;;;-144.41;100.00
41684;BME280;27369;52.030;4.586;2023-06-22T05:44:16;10806.59;;;-144.41;100.00
41684;BME280;27369;52.030;4.586;2023-06-22T05:46:43;3579.03;;;-144.41;100.00
41684;BME280;27369;52.030;4.586;2023-06-22T05:49:14;-2046.09;;;-144.41;100.00
41684;BME280;27369;52.030;4.586;2023-06-22T05:51:40;-9263.28;;;-144.41;100.00
41684;BME280;27369;52.030;4.586;2023-06-22T05:54:05;-11308.94;;;-144.41;100.00
41684;BME280;27369;52.030;4.586;2023-06-22T05:56:31;-12095.72;;;-144.41;100.00
41684;BME280;27369;52.030;4.586;2023-06-22T05:58:56;-16214.03;;;-144.41;100.00
41684;BME280;27369;52.030;4.586;2023-06-22T06:01:22;-20570.78;;;-144.41;100.00
41684;BME280;27369;52.030;4.586;2023-06-22T06:03:47;-20807.34;;;-144.41;100.00
41684;BME280;27369;52.030;4.586;2023-06-22T06:06:15;-20807.34;;;-144.41;100.00
41684;BME280;27369;52.030;4.586;2023-06-22T06:08:40;-20807.34;;;-144.41;100.00
41684;BME280;27369;52.030;4.586;2023-06-22T06:11:07;-20807.34;;;-144.41;100.00
41684;BME280;27369;52.030;4.586;2023-06-22T06:13:33;-20807.34;;;-144.41;100.00
41684;BME280;27369;52.030;4.586;2023-06-22T06:15:58;-20807.34;;;-144.41;100.00
41684;BME280;27369;52.030;4.586;2023-06-22T06:18:24;-20807.34;;;-144.41;100.00
41684;BME280;27369;52.030;4.586;2023-06-22T06:20:50;-20807.34;;;-144.41;100.00
41684;BME280;27369;52.030;4.586;2023-06-22T06:23:15;-20807.34;;;-144.41;100.00
41684;BME280;27369;52.030;4.586;2023-06-22T06:25:40;-20807.34;;;-144.41;100.00
41684;BME280;27369;52.030;4.586;2023-06-22T06:28:06;-20807.34;;;-144.41;100.00
41684;BME280;27369;52.030;4.586;2023-06-22T06:30:32;-20807.34;;;-144.41;100.00
41684;BME280;27369;52.030;4.586;2023-06-22T06:32:57;-20807.34;;;-144.41;100.00
41684;BME280;27369;52.030;4.586;2023-06-22T06:35:23;-20807.34;;;-144.41;100.00
41684;BME280;27369;52.030;4.586;2023-06-22T06:37:49;-20807.34;;;-144.41;100.00
41684;BME280;27369;52.030;4.586;2023-06-22T06:40:16;-20807.34;;;-144.41;100.00
41684;BME280;27369;52.030;4.586;2023-06-22T06:42:44;-20807.34;;;-144.41;100.00
41684;BME280;27369;52.030;4.586;2023-06-22T06:45:16;-20807.34;;;-144.41;100.00
41684;BME280;27369;52.030;4.586;2023-06-22T06:47:42;-20807.34;;;-144.41;100.00
41684;BME280;27369;52.030;4.586;2023-06-22T06:50:07;-20807.34;;;-144.41;100.00
41684;BME280;27369;52.030;4.586;2023-06-22T06:52:33;-20807.34;;;-144.41;100.00
41684;BME280;27369;52.030;4.586;2023-06-22T06:54:59;-20807.34;;;-144.41;100.00
41684;BME280;27369;52.030;4.586;2023-06-22T06:57:25;-20807.34;;;-144.41;100.00
41684;BME280;27369;52.030;4.586;2023-06-22T06:59:54;-20807.34;;;-144.41;100.00
41684;BME280;27369;52.030;4.586;2023-06-22T07:02:21;-20807.34;;;-144.41;100.00
41684;BME280;27369;52.030;4.586;2023-06-22T07:04:46;-20807.34;;;-144.41;100.00
41684;BME280;27369;52.030;4.586;2023-06-22T07:07:12;-20807.34;;;-144.41;100.00
41684;BME280;27369;52.030;4.586;2023-06-22T07:09:37;-20807.34;;;-144.41;100.00
41684;BME280;27369;52.030;4.586;2023-06-22T07:12:03;-20807.34;;;-144.41;100.00
41684;BME280;27369;52.030;4.586;2023-06-22T07:14:28;-20807.34;;;-144.41;100.00
41684;BME280;27369;52.030;4.586;2023-06-22T07:16:54;-20807.34;;;-144.41;100.00
41684;BME280;27369;52.030;4.586;2023-06-22T07:19:26;-20807.34;;;-144.41;100.00
41684;BME280;27369;52.030;4.586;2023-06-22T07:21:53;-20807.34;;;-144.41;100.00
41684;BME280;27369;52.030;4.586;2023-06-22T07:24:20;-20807.34;;;-144.41;100.00
41684;BME280;27369;52.030;4.586;2023-06-22T07:26:47;-20807.34;;;-144.41;100.00
41684;BME280;27369;52.030;4.586;2023-06-22T07:29:13;-20807.34;;;-144.41;100.00
41684;BME280;27369;52.030;4.586;2023-06-22T07:31:39;-20807.34;;;-144.41;100.00
41684;BME280;27369;52.030;4.586;2023-06-22T07:34:06;-20807.34;;;-144.41;100.00
41684;BME280;27369;52.030;4.586;2023-06-22T07:36:31;-20807.34;;;-144.41;100.00
41684;BME280;27369;52.030;4.586;2023-06-22T07:38:57;-20807.34;;;-144.41;100.00
41684;BME280;27369;52.030;4.586;2023-06-22T07:41:22;-20807.34;;;-144.41;100.00
41684;BME280;27369;52.030;4.586;2023-06-22T07:43:48;-20807.34;;;-144.41;100.00
41684;BME280;27369;52.030;4.586;2023-06-22T07:46:13;-20807.34;;;-144.41;100.00
41684;BME280;27369;52.030;4.586;2023-06-22T07:48:39;-20807.34;;;-144.41;100.00
41684;BME280;27369;52.030;4.586;2023-06-22T07:51:05;-20807.34;;;-144.41;100.00
41684;BME280;27369;52.030;4.586;2023-06-22T07:53:31;-20807.34;;;-144.41;100.00
41684;BME280;27369;52.030;4.586;2023-06-22T07:55:56;-20807.34;;;-144.41;100.00
41684;BME280;27369;52.030;4.586;2023-06-22T07:58:22;-20807.34;;;-144.41;100.00
41684;BME280;27369;52.030;4.586;2023-06-22T08:00:47;-20807.34;;;-144.41;100.00
41684;BME280;27369;52.030;4.586;2023-06-22T08:03:14;-20807.34;;;-144.41;100.00
41684;BME280;27369;52.030;4.586;2023-06-22T08:05:40;-20807.34;;;-144.41;100.00
41684;BME280;27369;52.030;4.586;2023-06-22T08:08:05;-20807.34;;;-144.41;100.00
41684;BME280;27369;52.030;4.586;2023-06-22T08:10:31;-20807.34;;;-144.41;100.00
41684;BME280;27369;52.030;4.586;2023-06-22T08:12:56;-20807.34;;;-144.41;100.00
41684;BME280;27369;52.030;4.586;2023-06-22T08:15:22;-20807.34;;;-144.41;100.00
41684;BME280;27369;52.030;4.586;2023-06-22T08:17:47;-20807.34;;;-144.41;100.00
41684;BME280;27369;52.030;4.586;2023-06-22T08:20:13;-20807.34;;;-144.41;100.00
41684;BME280;27369;52.030;4.586;2023-06-22T08:22:42;-20807.34;;;-144.41;100.00
41684;BME280;27369;52.030;4.586;2023-06-22T08:25:08;-20807.34;;;-144.41;100.00
41684;BME280;27369;52.030;4.586;2023-06-22T08:27:34;-20807.34;;;-144.41;100.00
41684;BME280;27369;52.030;4.586;2023-06-22T08:30:00;-20807.34;;;-144.41;100.00
41684;BME280;27369;52.030;4.586;2023-06-22T08:32:29;-20807.34;;;-144.41;100.00
41684;BME280;27369;52.030;4.586;2023-06-22T08:34:56;-20807.34;;;-144.41;100.00
41684;BME280;27369;52.030;4.586;2023-06-22T08:37:21;-20807.34;;;-144.41;100.00
41684;BME280;27369;52.030;4.586;2023-06-22T08:39:50;-20807.34;;;-144.41;100.00
41684;BME280;27369;52.030;4.586;2023-06-22T08:42:15;-20807.34;;;-144.41;100.00
41684;BME280;27369;52.030;4.586;2023-06-22T08:44:41;-20807.34;;;-144.41;100.00
41684;BME280;27369;52.030;4.586;2023-06-22T08:47:07;-20807.34;;;-144.41;100.00
41684;BME280;27369;52.030;4.586;2023-06-22T08:49:32;-20807.34;;;-144.41;100.00
41684;BME280;27369;52.030;4.586;2023-06-22T08:51:58;-20807.34;;;-144.41;100.00
41684;BME280;27369;52.030;4.586;2023-06-22T08:54:23;-20807.34;;;-144.41;100.00
41684;BME280;27369;52.030;4.586;2023-06-22T08:56:48;-20807.34;;;-144.41;100.00
41684;BME280;27369;52.030;4.586;2023-06-22T08:59:14;-20807.34;;;-144.41;100.00
41684;BME280;27369;52.030;4.586;2023-06-22T09:01:39;-20807.34;;;-144.41;100.00
41684;BME280;27369;52.030;4.586;2023-06-22T09:04:05;-20807.34;;;-144.41;100.00
41684;BME280;27369;52.030;4.586;2023-06-22T09:06:32;-20807.34;;;-144.41;100.00
41684;BME280;27369;52.030;4.586;2023-06-22T09:08:58;-20807.34;;;-144.41;100.00
41684;BME280;27369;52.030;4.586;2023-06-22T09:11:26;-20807.34;;;-144.41;100.00
41684;BME280;27369;52.030;4.586;2023-06-22T09:13:51;-20807.34;;;-144.41;100.00
41684;BME280;27369;52.030;4.586;2023-06-22T09:16:18;-20805.88;;;-144.41;100.00
41684;BME280;27369;52.030;4.586;2023-06-22T09:18:47;-14832.66;;;-144.41;100.00
41684;BME280;27369;52.030;4.586;2023-06-22T09:21:12;-13587.06;;;-144.41;100.00
41684;BME280;27369;52.030;4.586;2023-06-22T09:23:38;-8351.16;;;-144.41;100.00
41684;BME280;27369;52.030;4.586;2023-06-22T09:26:03;-3108.06;;;-144.41;100.00
41684;BME280;27369;52.030;4.586;2023-06-22T09:28:29;-608.84;;;-144.41;100.00
41684;BME280;27369;52.030;4.586;2023-06-22T09:30:55;3643.53;;;-144.41;100.00
41684;BME280;27369;52.030;4.586;2023-06-22T09:33:23;4394.44;;;-144.41;100.00
41684;BME280;27369;52.030;4.586;2023-06-22T09:35:49;11410.00;;;-144.41;100.00
41684;BME280;27369;52.030;4.586;2023-06-22T09:38:16;13918.63;;;-144.41;100.00
41684;BME280;27369;52.030;4.586;2023-06-22T09:40:41;22711.59;;;-144.41;100.00
41684;BME280;27369;52.030;4.586;2023-06-22T09:43:07;38336.53;;;-144.41;100.00
41684;BME280;27369;52.030;4.586;2023-06-22T09:45:32;46425.44;;;-144.41;100.00
41684;BME280;27369;52.030;4.586;2023-06-22T09:47:58;45919.38;;;-144.41;100.00
41684;BME280;27369;52.030;4.586;2023-06-22T09:50:23;48703.41;;;-144.41;100.00
41684;BME280;27369;52.030;4.586;2023-06-22T09:52:49;43895.88;;;-144.41;100.00
41684;BME280;27369;52.030;4.586;2023-06-22T09:55:20;44654.56;;;-144.41;100.00
41684;BME280;27369;52.030;4.586;2023-06-22T09:57:45;47690.81;;;-144.41;100.00
41684;BME280;27369;52.030;4.586;2023-06-22T10:00:11;57067.31;;;-144.41;100.00
41684;BME280;27369;52.030;4.586;2023-06-22T10:02:39;66720.34;;;-144.41;100.00
41684;BME280;27369;52.030;4.586;2023-06-22T10:05:05;74612.53;;;-144.41;100.00
41684;BME280;27369;52.030;4.586;2023-06-22T10:07:30;90699.56;;;-144.41;100.00
41684;BME280;27369;52.030;4.586;2023-06-22T10:09:56;92746.97;;;-144.41;100.00
41684;BME280;27369;52.030;4.586;2023-06-22T10:12:21;106481.72;;;-144.41;100.00
41684;BME280;27369;52.030;4.586;2023-06-22T10:14:46;107302.56;;;-144.41;100.00
41684;BME280;27369;52.030;4.586;2023-06-22T10:17:12;108647.53;;;-144.41;100.00
41684;BME280;27369;52.030;4.586;2023-06-22T10:19:37;108647.53;;;-144.41;100.00
41684;BME280;27369;52.030;4.586;2023-06-22T10:22:04;108647.53;;;-144.41;100.00
41684;BME280;27369;52.030;4.586;2023-06-22T10:24:30;108647.53;;;-144.41;100.00
41684;BME280;27369;52.030;4.586;2023-06-22T10:26:56;108647.53;;;-144.41;100.00
41684;BME280;27369;52.030;4.586;2023-06-22T10:29:21;108647.53;;;-144.41;100.00
41684;BME280;27369;52.030;4.586;2023-06-22T10:31:46;108647.53;;;-144.41;100.00
41684;BME280;27369;52.030;4.586;2023-06-22T10:34:12;108647.53;;;-144.41;100.00
41684;BME280;27369;52.030;4.586;2023-06-22T10:36:38;108647.53;;;-144.41;100.00
41684;BME280;27369;52.030;4.586;2023-06-22T10:39:03;108647.53;;;-144.41;100.00
41684;BME280;27369;52.030;4.586;2023-06-22T10:41:29;108647.53;;;-144.41;100.00
41684;BME280;27369;52.030;4.586;2023-06-22T10:43:56;108647.53;;;-144.41;100.00
41684;BME280;27369;52.030;4.586;2023-06-22T10:46:24;108647.53;;;-144.41;100.00
41684;BME280;27369;52.030;4.586;2023-06-22T10:48:49;108647.53;;;-144.41;100.00
41684;BME280;27369;52.030;4.586;2023-06-22T10:51:15;108647.53;;;-144.41;100.00
41684;BME280;27369;52.030;4.586;2023-06-22T10:53:40;108647.53;;;-144.41;100.00
41684;BME280;27369;52.030;4.586;2023-06-22T10:56:06;108647.53;;;-144.41;100.00
41684;BME280;27369;52.030;4.586;2023-06-22T10:58:31;108647.53;;;-144.41;100.00
41684;BME280;27369;52.030;4.586;2023-06-22T11:00:57;108647.53;;;-144.41;100.00
41684;BME280;27369;52.030;4.586;2023-06-22T11:03:24;108647.53;;;-144.41;100.00
41684;BME280;27369;52.030;4.586;2023-06-22T11:05:49;108647.53;;;-144.41;100.00
41684;BME280;27369;52.030;4.586;2023-06-22T11:08:15;108647.53;;;-144.41;100.00
41684;BME280;27369;52.030;4.586;2023-06-22T11:10:40;108647.53;;;-144.41;100.00
41684;BME280;27369;52.030;4.586;2023-06-22T11:13:06;108647.53;;;-144.41;100.00
41684;BME280;27369;52.030;4.586;2023-06-22T11:15:35;108647.53;;;-144.41;100.00
41684;BME280;27369;52.030;4.586;2023-06-22T11:18:00;108647.53;;;-144.41;100.00
41684;BME280;27369;52.030;4.586;2023-06-22T11:20:25;108647.53;;;-144.41;100.00
41684;BME280;27369;52.030;4.586;2023-06-22T11:22:51;108647.53;;;-144.41;100.00
41684;BME280;27369;52.030;4.586;2023-06-22T11:25:16;108647.53;;;-144.41;100.00
41684;BME280;27369;52.030;4.586;2023-06-22T11:27:42;108647.53;;;-144.41;100.00
41684;BME280;27369;52.030;4.586;2023-06-22T11:30:08;108647.53;;;-144.41;100.00
41684;BME280;27369;52.030;4.586;2023-06-22T11:32:34;108647.53;;;-144.41;100.00
41684;BME280;27369;52.030;4.586;2023-06-22T11:34:59;108647.53;;;-144.41;100.00
41684;BME280;27369;52.030;4.586;2023-06-22T11:37:24;108647.53;;;-144.41;100.00
41684;BME280;27369;52.030;4.586;2023-06-22T11:39:50;108647.53;;;-144.41;100.00
41684;BME280;27369;52.030;4.586;2023-06-22T11:42:16;108647.53;;;-144.41;100.00
41684;BME280;27369;52.030;4.586;2023-06-22T11:44:42;108647.53;;;-144.41;100.00
41684;BME280;27369;52.030;4.586;2023-06-22T11:47:08;86863.47;;;-144.41;100.00
41684;BME280;27369;52.030;4.586;2023-06-22T11:49:33;63415.34;;;-144.41;100.00
41684;BME280;27369;52.030;4.586;2023-06-22T11:51:59;44401.66;;;-144.41;100.00
41684;BME280;27369;52.030;4.586;2023-06-22T11:54:24;33541.63;;;-144.41;100.00
41684;BME280;27369;52.030;4.586;2023-06-22T11:56:49;25730.91;;;-144.41;100.00
41684;BME280;27369;52.030;4.586;2023-06-22T11:59:15;17684.59;;;-144.41;100.00
41684;BME280;27369;52.030;4.586;2023-06-22T12:01:40;9404.25;;;-144.41;100.00
41684;BME280;27369;52.030;4.586;2023-06-22T12:04:06;5896.72;;;-144.41;100.00
41684;BME280;27369;52.030;4.586;2023-06-22T12:06:32;-1108.84;;;-144.41;100.00
41684;BME280;27369;52.030;4.586;2023-06-22T12:08:58;-7602.59;;;-144.41;100.00
41684;BME280;27369;52.030;4.586;2023-06-22T12:11:24;-9847.88;;;-144.41;100.00
41684;BME280;27369;52.030;4.586;2023-06-22T12:13:49;-11593.28;;;-144.41;100.00
41684;BME280;27369;52.030;4.586;2023-06-22T12:16:15;-12091.84;;;-144.41;100.00
41684;BME280;27369;52.030;4.586;2023-06-22T12:18:40;-16824.78;;;-144.41;100.00
41684;BME280;27369;52.030;4.586;2023-06-22T12:21:05;-20807.34;;;-144.41;100.00
41684;BME280;27369;52.030;4.586;2023-06-22T12:23:31;-20807.34;;;-144.41;100.00